createdAt,value
2019-03-20T00:01:46.875Z,31.68
2019-03-20T00:04:18.515Z,31.37
2019-03-20T00:06:49.776Z,31.82
2019-03-20T00:09:21.148Z,31.48
2019-03-20T00:11:52.642Z,30.68
2019-03-20T00:14:24.527Z,30.62
2019-03-20T00:16:55.878Z,30.85
2019-03-20T00:19:27.359Z,30.25
2019-03-20T00:21:58.778Z,30.25
2019-03-20T00:24:30.174Z,28.75
2019-03-20T00:27:01.593Z,28.77
2019-03-20T00:29:32.852Z,27.30
2019-03-20T00:32:04.967Z,29.35
2019-03-20T00:34:36.314Z,27.65
2019-03-20T00:37:07.828Z,28.75
2019-03-20T00:39:39.114Z,28.32
2019-03-20T00:42:10.907Z,26.57
2019-03-20T00:44:42.171Z,27.50
2019-03-20T00:47:13.470Z,26.10
2019-03-20T00:49:44.767Z,26.23
2019-03-20T00:52:16.072Z,27.77
2019-03-20T00:54:47.472Z,26.30
2019-03-20T00:57:18.818Z,26.75
2019-03-20T00:59:50.150Z,39.38
2019-03-20T01:02:21.575Z,29.98
2019-03-20T01:04:52.901Z,30.30
2019-03-20T01:07:24.115Z,29.42
2019-03-20T01:09:55.412Z,29.75
2019-03-20T01:12:26.888Z,29.00
2019-03-20T01:14:58.215Z,29.57
2019-03-20T01:17:29.382Z,29.90
2019-03-20T01:20:00.812Z,30.45
2019-03-20T01:22:33.343Z,30.75
2019-03-20T01:25:07.047Z,28.98
2019-03-20T01:27:38.298Z,30.05
2019-03-20T01:30:15.161Z,31.50
2019-03-20T01:32:46.245Z,30.55
2019-03-20T01:35:23.802Z,30.43
2019-03-20T01:37:52.500Z,30.90
2019-03-20T01:40:24.143Z,29.80
2019-03-20T01:42:55.364Z,30.35
2019-03-20T01:45:26.749Z,30.40
2019-03-20T01:47:59.520Z,30.43
2019-03-20T01:50:30.929Z,30.37
2019-03-20T01:53:03.825Z,29.55
2019-03-20T01:55:34.958Z,29.80
2019-03-20T01:58:06.202Z,31.15
2019-03-20T02:00:37.853Z,30.72
2019-03-20T02:03:09.653Z,29.60
2019-03-20T02:05:40.835Z,29.55
2019-03-20T02:08:13.010Z,29.48
2019-03-20T02:10:44.376Z,30.35
2019-03-20T02:13:15.627Z,31.33
2019-03-20T02:15:50.379Z,29.65
2019-03-20T02:18:21.577Z,30.40
2019-03-20T02:20:52.948Z,32.65
2019-03-20T02:23:24.171Z,34.33
2019-03-20T02:25:57.136Z,31.87
2019-03-20T02:28:28.435Z,35.92
2019-03-20T02:30:59.730Z,35.85
2019-03-20T02:33:30.916Z,34.05
2019-03-20T02:36:02.278Z,33.33
2019-03-20T02:38:33.562Z,32.33
2019-03-20T02:41:05.011Z,31.33
2019-03-20T02:43:36.333Z,35.33
2019-03-20T02:46:07.531Z,32.45
2019-03-20T02:48:38.951Z,33.05
2019-03-20T02:51:10.232Z,33.60
2019-03-20T02:53:41.611Z,31.93
2019-03-20T02:56:12.852Z,31.25
2019-03-20T02:58:44.226Z,31.33
2019-03-20T03:01:15.508Z,31.07
2019-03-20T03:03:46.890Z,32.23
2019-03-20T03:06:18.227Z,32.98
2019-03-20T03:08:52.274Z,32.28
2019-03-20T03:11:23.726Z,32.20
2019-03-20T03:13:55.018Z,33.63
2019-03-20T03:16:26.483Z,31.37
2019-03-20T03:18:57.951Z,29.82
2019-03-20T03:21:29.393Z,29.72
2019-03-20T03:24:00.640Z,28.05
2019-03-20T03:26:32.143Z,30.43
2019-03-20T03:29:03.520Z,30.30
2019-03-20T03:31:35.419Z,29.20
2019-03-20T03:34:06.618Z,27.82
2019-03-20T03:36:37.885Z,27.75
2019-03-20T03:39:12.618Z,27.55
2019-03-20T03:41:44.079Z,29.02
2019-03-20T03:44:15.613Z,30.43
2019-03-20T03:46:47.609Z,30.40
2019-03-20T03:49:19.137Z,30.88
2019-03-20T03:51:51.407Z,30.57
2019-03-20T03:54:22.686Z,32.05
2019-03-20T03:56:54.310Z,29.72
2019-03-20T03:59:25.668Z,30.55
2019-03-20T04:01:58.632Z,30.57
2019-03-20T04:04:29.941Z,28.30
2019-03-20T04:07:01.560Z,30.50
2019-03-20T04:09:33.878Z,30.62
2019-03-20T04:12:22.113Z,31.30
2019-03-20T04:14:53.861Z,31.42
2019-03-20T04:17:28.459Z,33.58
2019-03-20T04:19:59.823Z,32.35
2019-03-20T04:22:31.124Z,33.05
2019-03-20T04:25:04.039Z,34.45
2019-03-20T04:27:35.517Z,34.92
2019-03-20T04:30:09.791Z,34.18
2019-03-20T04:32:41.077Z,35.05
2019-03-20T04:35:13.347Z,36.30
2019-03-20T04:37:44.833Z,35.88
2019-03-20T04:40:18.337Z,38.17
2019-03-20T04:42:49.490Z,69.25
2019-03-20T04:45:20.742Z,38.88
2019-03-20T04:47:52.035Z,37.23
2019-03-20T04:50:23.590Z,39.83
2019-03-20T04:53:00.844Z,41.98
2019-03-20T04:55:32.277Z,43.83
2019-03-20T04:58:03.974Z,41.35
2019-03-20T05:00:35.207Z,40.63
2019-03-20T05:03:07.646Z,44.10
2019-03-20T05:05:38.963Z,43.02
2019-03-20T05:08:10.276Z,41.33
2019-03-20T05:10:43.018Z,41.55
2019-03-20T05:13:14.119Z,42.70
2019-03-20T05:15:46.354Z,43.70
2019-03-20T05:18:17.978Z,41.83
2019-03-20T05:20:49.641Z,43.48
2019-03-20T05:23:20.831Z,54.75
2019-03-20T05:25:52.147Z,49.27
2019-03-20T05:28:24.299Z,46.63
2019-03-20T05:30:55.699Z,47.38
2019-03-20T05:33:27.335Z,43.75
2019-03-20T05:35:59.686Z,40.50
2019-03-20T05:38:31.013Z,40.58
2019-03-20T05:41:03.198Z,42.55
2019-03-20T05:43:35.804Z,41.00
2019-03-20T05:46:08.061Z,43.13
2019-03-20T05:48:39.477Z,41.80
2019-03-20T05:51:11.451Z,41.70
2019-03-20T05:53:44.062Z,40.63
2019-03-20T05:56:15.321Z,39.45
2019-03-20T05:58:46.539Z,39.48
2019-03-20T06:01:17.870Z,42.67
2019-03-20T06:03:49.118Z,40.52
2019-03-20T06:06:20.508Z,39.78
2019-03-20T06:08:51.685Z,40.12
2019-03-20T06:11:23.323Z,40.48
2019-03-20T06:13:59.018Z,40.83
2019-03-20T06:16:30.672Z,39.30
2019-03-20T06:19:02.216Z,38.95
2019-03-20T06:21:33.829Z,40.10
2019-03-20T06:24:05.188Z,37.28
2019-03-20T06:26:38.804Z,38.08
2019-03-20T06:29:10.123Z,38.08
2019-03-20T06:31:43.880Z,37.30
2019-03-20T06:34:15.308Z,38.08
2019-03-20T06:36:46.836Z,38.35
2019-03-20T06:39:17.932Z,48.25
2019-03-20T06:41:49.256Z,40.90
2019-03-20T06:44:20.577Z,39.83
2019-03-20T06:46:52.287Z,39.40
2019-03-20T06:49:23.917Z,41.08
2019-03-20T06:51:56.486Z,41.48
2019-03-20T06:54:28.161Z,40.45
2019-03-20T06:57:01.900Z,40.12
2019-03-20T06:59:39.040Z,39.85
2019-03-20T07:02:10.365Z,39.78
2019-03-20T07:05:04.449Z,41.55
2019-03-20T07:07:44.188Z,39.65
2019-03-20T07:10:19.060Z,40.43
2019-03-20T07:12:50.434Z,42.27
2019-03-20T07:15:21.586Z,40.35
2019-03-20T07:17:52.885Z,38.60
2019-03-20T07:20:24.303Z,38.50
2019-03-20T07:22:56.106Z,39.58
2019-03-20T07:25:30.090Z,40.33
2019-03-20T07:28:01.482Z,40.83
2019-03-20T07:30:33.207Z,40.95
2019-03-20T07:33:04.696Z,40.90
2019-03-20T07:35:35.835Z,42.15
2019-03-20T07:38:07.364Z,40.05
2019-03-20T07:40:38.478Z,39.65
2019-03-20T07:43:09.835Z,39.55
2019-03-20T07:45:40.993Z,38.08
2019-03-20T07:48:21.628Z,38.42
2019-03-20T07:50:45.300Z,41.50
2019-03-20T07:53:18.791Z,39.10
2019-03-20T07:55:51.910Z,37.38
2019-03-20T07:58:25.081Z,34.13
2019-03-20T08:00:56.997Z,32.33
2019-03-20T08:03:30.137Z,31.07
2019-03-20T08:06:03.495Z,30.80
2019-03-20T08:08:35.827Z,31.23
2019-03-20T08:11:06.972Z,32.20
2019-03-20T08:13:38.451Z,29.75
2019-03-20T08:16:10.094Z,29.95
2019-03-20T08:18:41.375Z,30.20
2019-03-20T08:21:12.643Z,32.30
2019-03-20T08:23:44.502Z,31.85
2019-03-20T08:26:15.652Z,28.38
2019-03-20T08:28:47.980Z,32.28
2019-03-20T08:31:19.202Z,31.90
2019-03-20T08:33:53.528Z,28.62
2019-03-20T08:36:25.028Z,30.27
2019-03-20T08:38:56.518Z,31.15
2019-03-20T08:41:29.273Z,30.30
2019-03-20T08:44:01.045Z,38.48
2019-03-20T08:46:32.331Z,34.03
2019-03-20T08:49:03.603Z,34.45
2019-03-20T08:51:34.985Z,37.05
2019-03-20T08:54:06.490Z,38.70
2019-03-20T08:56:37.627Z,37.40
2019-03-20T08:59:09.606Z,35.73
2019-03-20T09:01:41.120Z,34.53
2019-03-20T09:04:13.557Z,34.48
2019-03-20T09:06:44.814Z,32.88
2019-03-20T09:09:16.171Z,34.33
2019-03-20T09:11:47.860Z,33.50
2019-03-20T09:14:19.223Z,46.60
2019-03-20T09:16:50.777Z,30.85
2019-03-20T09:19:24.041Z,31.42
2019-03-20T09:21:57.718Z,31.57
2019-03-20T09:24:31.422Z,31.70
2019-03-20T09:27:03.019Z,31.65
2019-03-20T09:29:36.255Z,31.97
2019-03-20T09:32:08.165Z,31.80
2019-03-20T09:34:40.560Z,34.60
2019-03-20T09:37:12.117Z,35.90
2019-03-20T09:39:45.066Z,36.42
2019-03-20T09:42:16.451Z,40.08
2019-03-20T09:44:48.146Z,35.70
2019-03-20T09:47:20.131Z,32.00
2019-03-20T09:49:51.575Z,30.12
2019-03-20T09:52:22.879Z,30.65
2019-03-20T09:54:54.458Z,27.13
2019-03-20T09:57:26.202Z,27.25
2019-03-20T09:59:58.029Z,26.93
2019-03-20T10:02:31.017Z,28.75
2019-03-20T10:05:04.197Z,28.15
2019-03-20T10:07:35.561Z,28.50
2019-03-20T10:10:25.071Z,28.07
2019-03-20T10:13:07.967Z,33.83
2019-03-20T10:15:39.507Z,35.33
2019-03-20T10:18:11.487Z,34.60
2019-03-20T10:20:42.758Z,33.95
2019-03-20T10:23:14.018Z,32.73
2019-03-20T10:25:45.327Z,31.05
2019-03-20T10:28:16.484Z,29.72
2019-03-20T10:30:47.755Z,28.57
2019-03-20T10:33:19.147Z,28.25
2019-03-20T10:35:50.758Z,26.62
2019-03-20T10:38:22.033Z,24.75
2019-03-20T10:40:53.459Z,22.77
2019-03-20T10:43:25.545Z,21.10
2019-03-20T10:45:56.947Z,21.40
2019-03-20T10:48:28.120Z,19.17
2019-03-20T10:50:59.490Z,20.52
2019-03-20T10:53:30.994Z,20.77
2019-03-20T10:56:02.405Z,21.73
2019-03-20T10:58:33.817Z,19.90
2019-03-20T11:01:05.193Z,22.40
2019-03-20T11:03:36.743Z,20.82
2019-03-20T11:06:08.336Z,21.35
2019-03-20T11:08:40.677Z,20.65
2019-03-20T11:11:12.489Z,20.80
2019-03-20T11:13:43.816Z,22.60
2019-03-20T11:16:15.514Z,21.10
2019-03-20T11:18:48.481Z,20.50
2019-03-20T11:21:21.400Z,23.27
2019-03-20T11:23:54.461Z,21.60
2019-03-20T11:26:26.695Z,18.67
2019-03-20T11:28:58.722Z,18.40
2019-03-20T11:31:31.118Z,15.58
2019-03-20T11:34:03.716Z,21.82
2019-03-20T11:36:35.167Z,13.83
2019-03-20T11:39:08.864Z,14.03
2019-03-20T11:41:40.358Z,16.75
2019-03-20T11:44:13.231Z,20.43
2019-03-20T11:46:44.913Z,25.12
2019-03-20T11:49:16.168Z,27.15
2019-03-20T11:51:47.541Z,26.02
2019-03-20T11:54:19.680Z,26.85
2019-03-20T11:56:51.109Z,25.92
2019-03-20T11:59:24.185Z,25.75
2019-03-20T12:01:55.635Z,25.32
2019-03-20T12:04:28.248Z,25.35
2019-03-20T12:06:59.429Z,27.58
2019-03-20T12:09:40.725Z,26.20
2019-03-20T12:12:04.267Z,26.07
2019-03-20T12:14:38.652Z,27.80
2019-03-20T12:17:11.909Z,30.50
2019-03-20T12:19:45.403Z,28.73
2019-03-20T12:22:18.114Z,30.08
2019-03-20T12:24:49.955Z,29.52
2019-03-20T12:27:21.633Z,35.80
2019-03-20T12:29:52.855Z,43.28
2019-03-20T12:32:24.232Z,36.50
2019-03-20T12:34:55.405Z,36.75
2019-03-20T12:37:26.810Z,34.95
2019-03-20T12:39:58.301Z,36.73
2019-03-20T12:42:29.707Z,35.17
2019-03-20T12:45:01.689Z,35.33
2019-03-20T12:47:33.450Z,39.85
2019-03-20T12:50:09.166Z,46.48
2019-03-20T12:52:40.895Z,42.08
2019-03-20T12:55:17.615Z,41.70
2019-03-20T12:57:49.720Z,42.50
2019-03-20T13:00:27.450Z,41.73
2019-03-20T13:02:58.934Z,42.58
2019-03-20T13:05:30.256Z,41.63
2019-03-20T13:08:05.813Z,42.88
2019-03-20T13:10:34.777Z,61.70
2019-03-20T13:13:07.841Z,40.45
2019-03-20T13:15:39.318Z,40.65
2019-03-20T13:18:13.581Z,40.80
2019-03-20T13:20:47.086Z,38.45
2019-03-20T13:23:36.413Z,39.65
2019-03-20T13:26:08.116Z,38.88
2019-03-20T13:28:41.120Z,39.10
2019-03-20T13:31:18.537Z,93.52
2019-03-20T13:33:49.799Z,39.70
2019-03-20T13:36:21.275Z,39.20
2019-03-20T13:38:52.542Z,40.70
2019-03-20T13:41:23.685Z,37.80
2019-03-20T13:43:55.060Z,38.15
2019-03-20T13:46:27.938Z,37.70
2019-03-20T13:49:00.198Z,39.23
2019-03-20T13:51:31.313Z,38.60
2019-03-20T13:54:02.815Z,37.98
2019-03-20T13:56:34.011Z,37.70
2019-03-20T13:59:05.704Z,38.00
2019-03-20T14:01:37.066Z,36.08
2019-03-20T14:04:09.539Z,36.20
2019-03-20T14:06:41.261Z,36.25
2019-03-20T14:09:12.919Z,33.48
2019-03-20T14:11:44.179Z,32.10
2019-03-20T14:14:15.812Z,32.03
2019-03-20T14:16:48.490Z,30.55
2019-03-20T14:19:19.816Z,34.92
2019-03-20T14:21:51.148Z,32.88
2019-03-20T14:24:23.856Z,32.83
2019-03-20T14:26:55.324Z,32.42
2019-03-20T14:29:26.785Z,32.95
2019-03-20T14:31:58.080Z,31.48
2019-03-20T14:34:29.718Z,32.45
2019-03-20T14:37:02.278Z,30.20
2019-03-20T14:39:33.614Z,30.65
2019-03-20T14:42:05.955Z,32.17
2019-03-20T14:44:37.932Z,31.15
2019-03-20T14:47:09.283Z,59.65
2019-03-20T14:49:43.187Z,30.40
2019-03-20T14:52:14.599Z,31.00
2019-03-20T14:54:46.808Z,31.07
2019-03-20T14:57:18.402Z,33.50
2019-03-20T14:59:53.143Z,31.93
2019-03-20T15:02:25.138Z,34.03
2019-03-20T15:04:56.697Z,34.85
2019-03-20T15:07:28.151Z,32.83
2019-03-20T15:10:01.352Z,32.98
2019-03-20T15:12:34.323Z,33.75
2019-03-20T15:15:24.310Z,32.70
2019-03-20T15:17:56.352Z,32.42
2019-03-20T15:20:28.509Z,32.67
2019-03-20T15:23:01.693Z,33.30
2019-03-20T15:25:35.043Z,36.73
2019-03-20T15:28:06.335Z,36.50
2019-03-20T15:30:38.214Z,37.83
2019-03-20T15:33:09.557Z,38.42
2019-03-20T15:35:42.657Z,38.33
2019-03-20T15:38:14.940Z,39.27
2019-03-20T15:40:55.910Z,39.03
2019-03-20T15:43:20.329Z,40.75
2019-03-20T15:45:52.947Z,41.40
2019-03-20T15:48:24.233Z,41.68
2019-03-20T15:50:55.641Z,41.05
2019-03-20T15:53:27.188Z,40.92
2019-03-20T15:55:58.654Z,42.48
2019-03-20T15:58:30.194Z,39.78
2019-03-20T16:01:03.062Z,43.08
2019-03-20T16:03:43.140Z,41.50
2019-03-20T16:06:14.474Z,41.02
2019-03-20T16:08:46.178Z,39.15
2019-03-20T16:11:19.536Z,39.15
2019-03-20T16:13:50.748Z,39.75
2019-03-20T16:16:21.992Z,39.73
2019-03-20T16:18:53.724Z,38.70
2019-03-20T16:21:25.268Z,38.85
2019-03-20T16:23:58.068Z,39.65
2019-03-20T16:26:32.048Z,37.70
2019-03-20T16:29:05.811Z,39.08
2019-03-20T16:31:38.336Z,38.40
2019-03-20T16:34:11.837Z,39.23
2019-03-20T16:36:43.417Z,38.10
2019-03-20T16:39:14.903Z,38.38
2019-03-20T16:41:49.243Z,38.08
2019-03-20T16:44:20.570Z,38.50
2019-03-20T16:46:52.016Z,36.90
2019-03-20T16:49:23.294Z,36.98
2019-03-20T16:51:56.341Z,34.95
2019-03-20T16:54:28.012Z,34.85
2019-03-20T16:56:59.900Z,36.65
2019-03-20T16:59:31.662Z,36.00
2019-03-20T17:02:04.551Z,38.28
2019-03-20T17:04:35.861Z,38.10
2019-03-20T17:07:07.216Z,37.95
2019-03-20T17:09:38.492Z,36.20
2019-03-20T17:12:14.931Z,35.68
2019-03-20T17:14:46.292Z,39.40
2019-03-20T17:17:17.605Z,37.40
2019-03-20T17:19:49.513Z,35.92
2019-03-20T17:22:20.942Z,32.93
2019-03-20T17:24:52.238Z,32.95
2019-03-20T17:27:23.665Z,32.83
2019-03-20T17:29:56.916Z,32.13
2019-03-20T17:32:28.530Z,30.92
2019-03-20T17:35:00.454Z,30.72
2019-03-20T17:37:32.678Z,29.60
2019-03-20T17:40:06.963Z,31.52
2019-03-20T17:42:38.114Z,32.00
2019-03-20T17:45:14.764Z,30.92
2019-03-20T17:47:46.044Z,32.20
2019-03-20T17:50:20.736Z,31.70
2019-03-20T17:52:52.215Z,31.27
2019-03-20T17:55:24.902Z,30.48
2019-03-20T17:57:57.882Z,31.75
2019-03-20T18:00:50.070Z,30.10
2019-03-20T18:03:21.613Z,33.60
2019-03-20T18:05:53.166Z,33.15
2019-03-20T18:08:26.254Z,32.10
2019-03-20T18:10:57.921Z,30.77
2019-03-20T18:13:29.305Z,30.20
2019-03-20T18:16:00.610Z,29.65
2019-03-20T18:18:32.128Z,29.15
2019-03-20T18:21:04.677Z,29.92
2019-03-20T18:23:36.458Z,31.07
2019-03-20T18:26:07.919Z,29.92
2019-03-20T18:28:40.928Z,26.65
2019-03-20T18:31:12.426Z,27.37
2019-03-20T18:33:44.232Z,26.30
2019-03-20T18:36:17.021Z,27.32
2019-03-20T18:38:51.025Z,26.20
2019-03-20T18:41:24.552Z,25.55
2019-03-20T18:43:55.923Z,27.37
2019-03-20T18:46:27.261Z,26.12
2019-03-20T18:48:58.601Z,27.15
2019-03-20T18:51:30.318Z,27.77
2019-03-20T18:54:01.774Z,27.27
2019-03-20T18:56:33.011Z,27.37
2019-03-20T18:59:04.678Z,31.48
2019-03-20T19:01:36.066Z,25.72
2019-03-20T19:04:09.088Z,26.90
2019-03-20T19:06:40.691Z,26.87
2019-03-20T19:09:12.269Z,28.50
2019-03-20T19:11:43.785Z,32.90
2019-03-20T19:14:15.070Z,25.77
2019-03-20T19:16:46.327Z,25.08
2019-03-20T19:19:17.598Z,22.13
2019-03-20T19:21:48.873Z,20.85
2019-03-20T19:24:21.928Z,19.80
2019-03-20T19:26:54.001Z,18.75
2019-03-20T19:29:25.274Z,17.60
2019-03-20T19:31:57.607Z,16.12
2019-03-20T19:34:29.013Z,15.20
2019-03-20T19:37:00.621Z,16.45
2019-03-20T19:39:32.038Z,16.48
2019-03-20T19:42:03.626Z,16.75
2019-03-20T19:44:34.959Z,15.98
2019-03-20T19:47:09.520Z,15.48
2019-03-20T19:49:40.890Z,15.88
2019-03-20T19:52:12.089Z,16.48
2019-03-20T19:54:43.425Z,20.48
2019-03-20T19:57:17.485Z,14.23
2019-03-20T19:59:50.173Z,15.13
2019-03-20T20:02:21.467Z,14.73
2019-03-20T20:04:54.591Z,15.00
2019-03-20T20:07:25.951Z,14.60
2019-03-20T20:09:57.789Z,14.35
2019-03-20T20:12:31.367Z,14.83
2019-03-20T20:15:05.022Z,14.15
2019-03-20T20:17:36.641Z,15.30
2019-03-20T20:20:11.246Z,14.20
2019-03-20T20:22:43.475Z,13.00
2019-03-20T20:25:15.894Z,11.97
2019-03-20T20:27:47.989Z,12.95
2019-03-20T20:30:19.930Z,11.68
2019-03-20T20:32:52.148Z,12.20
2019-03-20T20:35:23.695Z,12.50
2019-03-20T20:37:55.078Z,11.28
2019-03-20T20:40:31.274Z,12.45
2019-03-20T20:43:04.415Z,12.03
2019-03-20T20:45:36.689Z,12.33
2019-03-20T20:48:09.035Z,13.18
2019-03-20T20:50:44.562Z,13.45
2019-03-20T20:53:16.357Z,13.88
2019-03-20T20:55:47.661Z,12.93
2019-03-20T20:58:19.013Z,12.55
2019-03-20T21:00:50.436Z,12.93
2019-03-20T21:03:22.034Z,13.38
2019-03-20T21:05:55.467Z,13.32
2019-03-20T21:08:27.075Z,13.48
2019-03-20T21:10:59.882Z,13.85
2019-03-20T21:13:31.675Z,12.45
2019-03-20T21:16:04.614Z,12.37
2019-03-20T21:18:48.190Z,12.05
2019-03-20T21:21:20.359Z,12.37
2019-03-20T21:24:25.446Z,11.73
2019-03-20T21:27:09.321Z,11.70
2019-03-20T21:30:08.025Z,11.53
2019-03-20T21:32:45.789Z,11.53
2019-03-20T21:35:44.936Z,11.68
2019-03-20T21:38:15.413Z,11.25
2019-03-20T21:41:02.128Z,11.70
2019-03-20T21:43:52.984Z,11.08
2019-03-20T21:46:29.932Z,13.48
2019-03-20T21:49:02.646Z,12.73
2019-03-20T21:51:35.167Z,13.08
2019-03-20T21:54:12.518Z,13.95
2019-03-20T21:57:05.501Z,13.93
2019-03-20T21:59:55.128Z,14.10
2019-03-20T22:02:43.771Z,13.90
2019-03-20T22:05:42.804Z,13.93
2019-03-20T22:08:14.061Z,13.23
2019-03-20T22:11:00.287Z,13.40
2019-03-20T22:13:43.575Z,14.00
2019-03-20T22:16:42.821Z,13.88
2019-03-20T22:19:31.747Z,14.68
2019-03-20T22:22:19.438Z,14.15
2019-03-20T22:25:15.426Z,14.43
2019-03-20T22:27:49.944Z,14.68
2019-03-20T22:30:21.315Z,14.70
2019-03-20T22:33:17.522Z,14.95
2019-03-20T22:35:50.052Z,14.23
2019-03-20T22:38:28.596Z,15.35
2019-03-20T22:41:15.568Z,14.47
2019-03-20T22:43:53.425Z,13.68
2019-03-20T22:46:51.527Z,13.83
2019-03-20T22:49:44.258Z,14.30
2019-03-20T22:52:38.282Z,13.50
2019-03-20T22:55:16.793Z,12.80
2019-03-20T22:58:12.972Z,13.48
2019-03-20T23:00:46.331Z,12.40
2019-03-20T23:03:30.934Z,11.73
2019-03-20T23:06:02.483Z,11.83
2019-03-20T23:08:34.388Z,11.50
2019-03-20T23:11:05.801Z,11.57
2019-03-20T23:13:41.758Z,11.22
2019-03-20T23:16:13.047Z,10.98
2019-03-20T23:18:44.599Z,10.43
2019-03-20T23:21:20.865Z,19.12
2019-03-20T23:23:52.056Z,11.20
2019-03-20T23:26:37.827Z,10.60
2019-03-20T23:29:09.042Z,12.00
2019-03-20T23:31:40.420Z,11.88
2019-03-20T23:34:11.715Z,11.10
2019-03-20T23:36:42.850Z,11.38
2019-03-20T23:39:14.113Z,10.75
2019-03-20T23:41:45.545Z,11.08
2019-03-20T23:44:16.828Z,10.95
2019-03-20T23:46:48.318Z,10.72
2019-03-20T23:49:23.683Z,10.70
2019-03-20T23:51:55.818Z,10.90
2019-03-20T23:54:30.330Z,10.75
2019-03-20T23:57:02.697Z,11.40
2019-03-20T23:59:36.255Z,10.98
